Accueil
METAR-TAF:

METAR-TAF

Aéroports :

Colmar, France

Aéroport de Colmar - Houssen

latitude: 48-06-37N, longitude: 7-21-33E, altitude: 191 m

Observation

Le bulletin a été fait il y a 36 minutes, à 11:30 UTC
Vent 2 kt de sud-ouest
Température 27°C
Humidité 51%
Pression 1007 hPa
Visibilité 10 km ou plus
Nuages épars à une hauteur de 4700 ft
Nuages fragmentés à une hauteur de 6800 ft
Nuages fragmentés à une hauteur de 13000 ft

METAR: LFGA 271130Z AUTO 23002KT 9999 SCT047 BKN068 BKN130 27/16 Q1007

Heure: 14:06 (12:06 UTC)


TAF: absent

Observations et prévisions météorologiques de plus de 4000 aéroports (messages METAR et TAF).

Les stations disponibles sont représentées par des disques jaunes et rouges sur la carte.

Passer la souris dessus pour voir le nom de la station.

Cliquer dessus pour voir les observations et prévisions météorologiques.

Pour changer de carte: cliquez sur les boutons verts avec une croix noire pour zoomer, sur le bouton vert avec un tiret pour effectuer un zoom arrière, ou sur les flèches vertes pour les cartes adjacentes.


METAR-TAF: